Terminal Aerodrome Forecast
Issued by NWS

Home | Current Version | Previous Version | Text Only | Print | Product List | Glossary On
Versions: 1 2 3 4 5 6 7 8 9 10 11 12
343
FTUS45 KREV 301735
TAFMMH
TAF
KMMH 301735Z 3018/3118 VRB04KT P6SM FEW120 SCT200
     FM302000 23014G24KT P6SM FEW120 SCT200
     FM310300 27011G18KT P6SM SCT200
     FM310700 VRB04KT P6SM FEW200=

USA.gov is the U.S. government's official web portal to all federal, state and local government web resources and services.